createdAt,value
2023-01-07T00:01:47.364Z,13.58
2023-01-07T00:03:54.398Z,13.57
2023-01-07T00:06:02.712Z,13.56
2023-01-07T00:08:08.346Z,13.56
2023-01-07T00:10:13.803Z,13.56
2023-01-07T00:12:19.169Z,13.55
2023-01-07T00:14:24.383Z,13.54
2023-01-07T00:16:32.045Z,13.54
2023-01-07T00:18:41.328Z,13.53
2023-01-07T00:20:46.671Z,13.52
2023-01-07T00:22:53.854Z,13.53
2023-01-07T00:24:59.044Z,13.54
2023-01-07T00:27:04.266Z,13.55
2023-01-07T00:29:10.645Z,13.53
2023-01-07T00:31:18.955Z,13.53
2023-01-07T00:33:28.533Z,13.52
2023-01-07T00:35:37.254Z,13.51
2023-01-07T00:37:54.771Z,13.51
2023-01-07T00:40:00.429Z,13.50
2023-01-07T00:42:18.132Z,13.51
2023-01-07T00:44:23.499Z,13.50
2023-01-07T00:46:30.031Z,13.51
2023-01-07T00:48:35.393Z,13.52
2023-01-07T00:50:43.765Z,13.52
2023-01-07T00:52:49.104Z,13.52
2023-01-07T00:54:54.855Z,13.53
2023-01-07T00:57:00.028Z,13.55
2023-01-07T00:59:05.563Z,13.54
2023-01-07T01:01:12.729Z,13.54
2023-01-07T01:03:19.378Z,13.52
2023-01-07T01:05:25.835Z,13.51
2023-01-07T01:07:34.255Z,13.51
2023-01-07T01:09:39.428Z,13.51
2023-01-07T01:11:45.918Z,13.50
2023-01-07T01:13:51.503Z,13.50
2023-01-07T01:15:56.791Z,13.51
2023-01-07T01:18:02.026Z,13.49
2023-01-07T01:20:10.438Z,13.50
2023-01-07T01:22:15.731Z,13.51
2023-01-07T01:24:23.839Z,13.50
2023-01-07T01:26:29.120Z,13.50
2023-01-07T01:28:35.438Z,13.49
2023-01-07T01:30:40.641Z,13.51
2023-01-07T01:32:47.122Z,13.52
2023-01-07T01:34:53.272Z,13.52
2023-01-07T01:36:58.654Z,13.53
2023-01-07T01:39:05.057Z,13.52
2023-01-07T01:41:18.373Z,13.51
2023-01-07T01:43:34.862Z,13.49
2023-01-07T01:45:40.330Z,13.47
2023-01-07T01:47:51.566Z,13.47
2023-01-07T01:50:07.801Z,13.47
2023-01-07T01:52:19.662Z,13.47
2023-01-07T01:54:26.391Z,13.46
2023-01-07T01:56:41.303Z,13.46
2023-01-07T01:58:54.453Z,13.44
2023-01-07T02:00:59.756Z,13.42
2023-01-07T02:03:09.281Z,13.42
2023-01-07T02:05:15.204Z,13.42
2023-01-07T02:07:21.454Z,13.43
2023-01-07T02:09:31.277Z,13.44
2023-01-07T02:11:49.524Z,13.43
2023-01-07T02:14:18.469Z,13.42
2023-01-07T02:16:36.461Z,13.43
2023-01-07T02:19:22.516Z,13.42
2023-01-07T02:21:44.230Z,13.42
2023-01-07T02:24:28.041Z,13.41
2023-01-07T02:27:24.787Z,13.37
2023-01-07T02:30:28.889Z,13.32
2023-01-07T02:32:57.784Z,13.30
2023-01-07T02:35:18.404Z,13.28
2023-01-07T02:37:37.353Z,13.28
2023-01-07T02:40:01.711Z,13.30
2023-01-07T02:42:22.929Z,13.32
2023-01-07T02:44:41.025Z,13.34
2023-01-07T02:46:54.229Z,13.35
2023-01-07T02:49:10.654Z,13.35
2023-01-07T02:51:16.211Z,13.34
2023-01-07T02:53:23.868Z,13.35
2023-01-07T02:55:44.921Z,13.35
2023-01-07T02:58:31.133Z,13.34
2023-01-07T03:00:58.465Z,13.33
2023-01-07T03:03:34.288Z,13.35
2023-01-07T03:06:00.953Z,13.34
2023-01-07T03:08:27.229Z,13.33
2023-01-07T03:10:43.953Z,13.34
2023-01-07T03:12:57.674Z,13.34
2023-01-07T03:15:12.068Z,13.34
2023-01-07T03:17:23.944Z,13.34
2023-01-07T03:19:35.965Z,13.34
2023-01-07T03:21:44.338Z,13.33
2023-01-07T03:23:56.891Z,13.35
2023-01-07T03:26:07.755Z,13.34
2023-01-07T03:28:16.657Z,13.32
2023-01-07T03:30:23.459Z,13.30
2023-01-07T03:32:35.529Z,13.30
2023-01-07T03:34:42.237Z,13.29
2023-01-07T03:36:58.061Z,13.27
2023-01-07T03:39:04.661Z,13.25
2023-01-07T03:41:10.102Z,13.25
2023-01-07T03:43:19.553Z,13.24
2023-01-07T03:45:29.409Z,13.22
2023-01-07T03:47:39.579Z,13.22
2023-01-07T03:49:44.959Z,13.19
2023-01-07T03:51:54.574Z,13.16
2023-01-07T03:54:00.052Z,13.15
2023-01-07T03:56:06.390Z,13.14
2023-01-07T03:58:11.672Z,13.13
2023-01-07T04:00:18.823Z,13.12
2023-01-07T04:02:32.591Z,13.10
2023-01-07T04:04:37.906Z,13.10
2023-01-07T04:06:43.420Z,13.12
2023-01-07T04:08:51.378Z,13.12
2023-01-07T04:10:56.814Z,13.13
2023-01-07T04:13:02.373Z,13.13
2023-01-07T04:15:10.598Z,13.11
2023-01-07T04:17:16.065Z,13.11
2023-01-07T04:19:22.038Z,13.12
2023-01-07T04:21:27.343Z,13.13
2023-01-07T04:23:32.779Z,13.14
2023-01-07T04:25:41.334Z,13.15
2023-01-07T04:27:48.349Z,13.15
2023-01-07T04:29:53.608Z,13.12
2023-01-07T04:31:59.910Z,13.08
2023-01-07T04:34:05.688Z,13.07
2023-01-07T04:36:13.350Z,13.07
2023-01-07T04:38:18.929Z,13.06
2023-01-07T04:40:24.285Z,13.05
2023-01-07T04:42:33.171Z,13.06
2023-01-07T04:44:38.475Z,13.06
2023-01-07T04:46:44.562Z,13.07
2023-01-07T04:48:50.068Z,13.05
2023-01-07T04:50:55.899Z,13.03
2023-01-07T04:53:01.263Z,13.04
2023-01-07T04:55:08.760Z,13.04
2023-01-07T04:57:14.903Z,13.04
2023-01-07T04:59:25.252Z,13.04
2023-01-07T05:01:31.216Z,13.05
2023-01-07T05:03:37.221Z,13.04
2023-01-07T05:05:44.831Z,13.05
2023-01-07T05:07:50.242Z,13.07
2023-01-07T05:09:57.178Z,13.07
2023-01-07T05:12:03.392Z,13.06
2023-01-07T05:14:11.030Z,13.06
2023-01-07T05:16:20.685Z,13.06
2023-01-07T05:18:26.601Z,13.06
2023-01-07T05:20:31.869Z,13.05
2023-01-07T05:22:37.808Z,13.03
2023-01-07T05:24:43.478Z,13.04
2023-01-07T05:26:49.522Z,13.01
2023-01-07T05:28:57.043Z,13.03
2023-01-07T05:31:03.496Z,13.03
2023-01-07T05:33:13.656Z,13.02
2023-01-07T05:35:20.477Z,13.01
2023-01-07T05:37:26.226Z,13.03
2023-01-07T05:39:31.797Z,13.03
2023-01-07T05:41:37.365Z,13.04
2023-01-07T05:43:42.896Z,13.05
2023-01-07T05:45:49.032Z,13.06
2023-01-07T05:47:54.583Z,13.07
2023-01-07T05:50:02.647Z,13.07
2023-01-07T05:52:08.453Z,13.07
2023-01-07T05:54:14.048Z,13.06
2023-01-07T05:56:19.750Z,13.08
2023-01-07T05:58:25.010Z,13.08
2023-01-07T06:00:30.196Z,13.10
2023-01-07T06:02:35.392Z,13.11
2023-01-07T06:04:40.780Z,13.13
2023-01-07T06:06:48.647Z,13.12
2023-01-07T06:08:53.995Z,13.13
2023-01-07T06:10:59.221Z,13.13
2023-01-07T06:13:05.109Z,13.13
2023-01-07T06:15:12.202Z,13.13
2023-01-07T06:17:17.705Z,13.11
2023-01-07T06:19:23.071Z,13.09
2023-01-07T06:21:28.397Z,13.07
2023-01-07T06:23:37.514Z,13.07
2023-01-07T06:25:42.671Z,13.04
2023-01-07T06:27:47.864Z,13.02
2023-01-07T06:29:53.101Z,13.02
2023-01-07T06:31:58.237Z,12.99
2023-01-07T06:34:03.456Z,12.96
2023-01-07T06:36:10.375Z,12.93
2023-01-07T06:38:16.105Z,12.90
2023-01-07T06:40:23.921Z,12.86
2023-01-07T06:42:29.641Z,12.83
2023-01-07T06:44:34.799Z,12.79
2023-01-07T06:46:40.181Z,12.75
2023-01-07T06:48:45.523Z,12.72
2023-01-07T06:50:50.716Z,12.67
2023-01-07T06:52:56.995Z,12.66
2023-01-07T06:55:02.205Z,12.63
2023-01-07T06:57:09.981Z,12.57
2023-01-07T06:59:15.733Z,12.55
2023-01-07T07:01:21.072Z,12.51
2023-01-07T07:03:26.538Z,12.48
2023-01-07T07:05:31.870Z,12.46
2023-01-07T07:07:37.233Z,12.43
2023-01-07T07:09:42.707Z,12.42
2023-01-07T07:11:47.955Z,12.38
2023-01-07T07:13:55.770Z,12.36
2023-01-07T07:16:01.294Z,12.33
2023-01-07T07:18:06.924Z,12.32
2023-01-07T07:20:13.697Z,12.30
2023-01-07T07:22:18.884Z,12.30
2023-01-07T07:24:24.261Z,12.28
2023-01-07T07:26:29.631Z,12.26
2023-01-07T07:28:35.028Z,12.26
2023-01-07T07:30:45.980Z,12.23
2023-01-07T07:32:53.107Z,12.20
2023-01-07T07:34:58.307Z,12.21
2023-01-07T07:37:03.959Z,12.20
2023-01-07T07:39:10.067Z,12.20
2023-01-07T07:41:15.271Z,12.21
2023-01-07T07:43:20.455Z,12.22
2023-01-07T07:45:25.744Z,12.22
2023-01-07T07:47:33.456Z,12.25
2023-01-07T07:49:38.618Z,12.25
2023-01-07T07:51:43.796Z,12.26
2023-01-07T07:53:49.212Z,12.27
2023-01-07T07:55:54.407Z,12.29
2023-01-07T07:58:00.969Z,12.30
2023-01-07T08:00:07.445Z,12.34
2023-01-07T08:02:19.440Z,12.38
2023-01-07T08:04:28.884Z,12.44
2023-01-07T08:06:34.393Z,12.51
2023-01-07T08:08:39.596Z,12.55
2023-01-07T08:10:44.883Z,12.62
2023-01-07T08:12:50.615Z,12.65
2023-01-07T08:14:56.049Z,12.71
2023-01-07T08:17:01.344Z,12.78
2023-01-07T08:19:06.633Z,12.83
2023-01-07T08:21:14.407Z,12.88
2023-01-07T08:23:20.040Z,12.96
2023-01-07T08:25:25.179Z,13.02
2023-01-07T08:27:31.249Z,13.09
2023-01-07T08:29:36.439Z,13.16
2023-01-07T08:31:41.751Z,13.16
2023-01-07T08:33:46.960Z,13.14
2023-01-07T08:35:52.157Z,13.12
2023-01-07T08:38:09.085Z,13.09
2023-01-07T08:40:17.012Z,13.07
2023-01-07T08:42:22.263Z,13.02
2023-01-07T08:44:27.656Z,13.02
2023-01-07T08:46:33.381Z,13.03
2023-01-07T08:48:39.235Z,13.04
2023-01-07T08:50:44.554Z,13.07
2023-01-07T08:52:50.072Z,13.09
2023-01-07T08:54:57.860Z,13.11
2023-01-07T08:57:02.995Z,13.17
2023-01-07T08:59:09.270Z,13.23
2023-01-07T09:01:15.379Z,13.31
2023-01-07T09:03:20.859Z,13.40
2023-01-07T09:05:27.273Z,13.53
2023-01-07T09:07:32.815Z,13.66
2023-01-07T09:09:38.384Z,13.82
2023-01-07T09:11:46.277Z,13.96
2023-01-07T09:13:51.548Z,14.14
2023-01-07T09:15:57.048Z,14.31
2023-01-07T09:18:03.723Z,14.47
2023-01-07T09:20:12.202Z,14.63
2023-01-07T09:22:18.130Z,14.77
2023-01-07T09:24:23.554Z,14.93
2023-01-07T09:26:29.632Z,15.07
2023-01-07T09:28:37.488Z,15.22
2023-01-07T09:30:43.405Z,15.36
2023-01-07T09:32:48.658Z,15.50
2023-01-07T09:34:54.025Z,15.60
2023-01-07T09:36:59.483Z,15.72
2023-01-07T09:39:04.964Z,15.83
2023-01-07T09:41:31.666Z,15.90
2023-01-07T09:44:00.623Z,15.90
2023-01-07T09:46:12.645Z,15.94
2023-01-07T09:48:26.210Z,16.04
2023-01-07T09:50:51.594Z,16.16
2023-01-07T09:53:03.456Z,16.29
2023-01-07T09:55:19.573Z,16.43
2023-01-07T09:57:26.438Z,16.55
2023-01-07T09:59:35.217Z,16.65
2023-01-07T10:01:49.487Z,16.74
2023-01-07T10:04:09.748Z,16.81
2023-01-07T10:06:42.006Z,16.89
2023-01-07T10:09:09.855Z,16.97
2023-01-07T10:11:33.420Z,17.05
2023-01-07T10:13:54.236Z,17.04
2023-01-07T10:16:13.122Z,16.30
2023-01-07T10:18:35.448Z,15.89
2023-01-07T10:20:50.849Z,15.61
2023-01-07T10:23:03.613Z,15.43
2023-01-07T10:25:21.098Z,15.30
2023-01-07T10:27:35.382Z,15.24
2023-01-07T10:29:51.011Z,15.21
2023-01-07T10:32:10.201Z,15.23
2023-01-07T10:34:22.519Z,15.21
2023-01-07T10:36:31.355Z,15.18
2023-01-07T10:38:42.949Z,15.17
2023-01-07T10:40:57.151Z,15.15
2023-01-07T10:43:17.969Z,15.12
2023-01-07T10:45:44.522Z,15.11
2023-01-07T10:48:17.938Z,15.06
2023-01-07T10:51:00.987Z,15.05
2023-01-07T10:53:20.999Z,15.03
2023-01-07T10:55:46.680Z,15.05
2023-01-07T10:57:52.394Z,15.08
2023-01-07T11:00:02.854Z,15.13
2023-01-07T11:02:19.606Z,15.17
2023-01-07T11:04:28.976Z,15.24
2023-01-07T11:06:46.562Z,15.28
2023-01-07T11:08:53.414Z,15.32
2023-01-07T11:10:58.908Z,15.36
2023-01-07T11:13:10.468Z,15.39
2023-01-07T11:15:25.056Z,15.43
2023-01-07T11:17:38.708Z,15.47
2023-01-07T11:19:49.477Z,15.49
2023-01-07T11:21:54.617Z,15.54
2023-01-07T11:24:01.902Z,15.58
2023-01-07T11:26:28.467Z,15.62
2023-01-07T11:28:34.243Z,15.64
2023-01-07T11:30:40.313Z,15.68
2023-01-07T11:32:58.857Z,15.70
2023-01-07T11:35:23.297Z,15.73
2023-01-07T11:37:40.000Z,15.77
2023-01-07T11:39:45.184Z,15.81
2023-01-07T11:42:00.748Z,15.85
2023-01-07T11:44:07.329Z,15.89
2023-01-07T11:46:20.395Z,15.94
2023-01-07T11:48:33.199Z,15.98
2023-01-07T11:50:45.350Z,16.01
2023-01-07T11:53:03.308Z,16.02
2023-01-07T11:55:18.638Z,16.06
2023-01-07T11:57:28.397Z,16.09
2023-01-07T11:59:33.952Z,16.15
2023-01-07T12:01:46.877Z,16.17
2023-01-07T12:04:22.742Z,16.22
2023-01-07T12:06:35.341Z,16.25
2023-01-07T12:08:45.179Z,16.29
2023-01-07T12:10:59.841Z,16.31
2023-01-07T12:13:08.977Z,16.34
2023-01-07T12:15:26.628Z,16.36
2023-01-07T12:17:37.171Z,16.38
2023-01-07T12:20:09.432Z,16.42
2023-01-07T12:22:36.187Z,16.43
2023-01-07T12:25:04.626Z,16.45
2023-01-07T12:27:23.774Z,16.48
2023-01-07T12:29:50.674Z,16.50
2023-01-07T12:32:16.166Z,16.53
2023-01-07T12:34:42.754Z,16.55
2023-01-07T12:36:55.763Z,16.57
2023-01-07T12:39:13.037Z,16.60
2023-01-07T12:41:25.003Z,16.62
2023-01-07T12:43:38.022Z,16.62
2023-01-07T12:45:50.856Z,16.62
2023-01-07T12:48:04.896Z,16.58
2023-01-07T12:50:20.685Z,16.58
2023-01-07T12:52:41.255Z,16.57
2023-01-07T12:54:58.935Z,16.57
2023-01-07T12:57:14.226Z,16.57
2023-01-07T12:59:47.027Z,16.57
2023-01-07T13:02:03.597Z,16.57
2023-01-07T13:04:22.835Z,16.59
2023-01-07T13:06:45.417Z,16.59
2023-01-07T13:09:06.003Z,16.57
2023-01-07T13:11:45.170Z,16.58
2023-01-07T13:13:57.077Z,16.59
2023-01-07T13:16:03.350Z,16.59
2023-01-07T13:18:19.476Z,16.57
2023-01-07T13:20:53.374Z,16.56
2023-01-07T13:23:01.661Z,16.54
2023-01-07T13:25:34.775Z,16.54
2023-01-07T13:28:06.153Z,16.54
2023-01-07T13:30:25.107Z,16.53
2023-01-07T13:33:04.648Z,16.54
2023-01-07T13:35:41.622Z,16.53
2023-01-07T13:38:04.570Z,16.52
2023-01-07T13:40:40.579Z,16.51
2023-01-07T13:42:57.676Z,16.50
2023-01-07T13:45:12.423Z,16.48
2023-01-07T13:47:24.954Z,16.49
2023-01-07T13:49:35.732Z,16.47
2023-01-07T13:51:42.113Z,16.48
2023-01-07T13:53:49.565Z,16.47
2023-01-07T13:55:56.485Z,16.47
2023-01-07T13:58:05.361Z,16.46
2023-01-07T14:01:01.624Z,16.44
2023-01-07T14:03:07.139Z,16.39
2023-01-07T14:05:27.978Z,16.38
2023-01-07T14:07:34.121Z,16.37
2023-01-07T14:09:43.944Z,16.34
2023-01-07T14:12:31.839Z,16.31
2023-01-07T14:14:52.304Z,16.25
2023-01-07T14:17:13.085Z,16.24
2023-01-07T14:19:33.278Z,16.19
2023-01-07T14:22:02.538Z,16.17
2023-01-07T14:24:43.857Z,16.07
2023-01-07T14:27:02.091Z,16.00
2023-01-07T14:29:32.714Z,15.96
2023-01-07T14:31:40.809Z,15.93
2023-01-07T14:33:54.426Z,15.89
2023-01-07T14:36:03.554Z,15.89
2023-01-07T14:38:53.562Z,15.86
2023-01-07T14:41:10.976Z,15.82
2023-01-07T14:44:01.842Z,15.80
2023-01-07T14:46:07.304Z,15.75
2023-01-07T14:48:37.228Z,15.74
2023-01-07T14:50:53.994Z,15.69
2023-01-07T14:53:48.760Z,15.64
2023-01-07T14:56:13.327Z,15.57
2023-01-07T14:58:53.021Z,15.50
2023-01-07T15:01:27.495Z,15.42
2023-01-07T15:03:55.629Z,15.34
2023-01-07T15:06:18.619Z,15.30
2023-01-07T15:08:42.267Z,15.23
2023-01-07T15:11:02.601Z,15.16
2023-01-07T15:13:23.574Z,15.11
2023-01-07T15:15:44.993Z,15.05
2023-01-07T15:17:50.626Z,14.98
2023-01-07T15:20:00.216Z,14.95
2023-01-07T15:22:27.137Z,14.93
2023-01-07T15:24:45.413Z,14.89
2023-01-07T15:27:00.854Z,14.87
2023-01-07T15:29:18.070Z,14.83
2023-01-07T15:31:32.265Z,14.79
2023-01-07T15:34:00.320Z,14.76
2023-01-07T15:36:15.906Z,14.71
2023-01-07T15:38:33.292Z,14.68
2023-01-07T15:40:38.558Z,14.65
2023-01-07T15:42:47.463Z,14.60
2023-01-07T15:44:56.954Z,14.58
2023-01-07T15:47:02.142Z,14.55
2023-01-07T15:49:16.535Z,14.52
2023-01-07T15:51:25.663Z,14.48
2023-01-07T15:53:32.575Z,14.46
2023-01-07T15:55:42.883Z,14.45
2023-01-07T15:57:50.733Z,14.41
2023-01-07T15:59:58.823Z,14.39
2023-01-07T16:02:22.114Z,14.38
2023-01-07T16:04:32.348Z,14.35
2023-01-07T16:06:45.622Z,14.35
2023-01-07T16:08:50.866Z,14.33
2023-01-07T16:11:05.429Z,14.32
2023-01-07T16:13:20.762Z,14.28
2023-01-07T16:15:33.409Z,14.27
2023-01-07T16:17:38.700Z,14.24
2023-01-07T16:19:44.258Z,14.21
2023-01-07T16:21:58.988Z,14.19
2023-01-07T16:24:04.337Z,14.14
2023-01-07T16:26:12.695Z,14.11
2023-01-07T16:28:22.977Z,14.07
2023-01-07T16:30:28.591Z,14.01
2023-01-07T16:32:34.316Z,13.97
2023-01-07T16:34:58.880Z,13.93
2023-01-07T16:37:14.308Z,13.87
2023-01-07T16:39:30.442Z,13.84
2023-01-07T16:41:36.968Z,13.80
2023-01-07T16:43:47.462Z,13.76
2023-01-07T16:46:26.301Z,13.71
2023-01-07T16:48:31.537Z,13.63
2023-01-07T16:50:42.419Z,13.58
2023-01-07T16:52:56.939Z,13.53
2023-01-07T16:55:02.826Z,13.46
2023-01-07T16:57:30.156Z,13.41
2023-01-07T16:59:39.660Z,13.37
2023-01-07T17:01:47.171Z,13.34
2023-01-07T17:03:58.538Z,13.31
2023-01-07T17:06:09.125Z,13.27
2023-01-07T17:08:23.219Z,13.24
2023-01-07T17:10:33.192Z,13.18
2023-01-07T17:12:42.416Z,13.15
2023-01-07T17:14:51.103Z,13.09
2023-01-07T17:17:03.280Z,13.05
2023-01-07T17:19:28.275Z,13.00
2023-01-07T17:21:41.397Z,12.93
2023-01-07T17:23:49.233Z,12.88
2023-01-07T17:26:00.205Z,12.80
2023-01-07T17:28:16.693Z,12.74
2023-01-07T17:30:25.417Z,12.70
2023-01-07T17:32:31.284Z,12.66
2023-01-07T17:34:36.383Z,12.63
2023-01-07T17:36:41.847Z,12.62
2023-01-07T17:38:49.917Z,12.61
2023-01-07T17:40:55.931Z,12.56
2023-01-07T17:43:13.565Z,12.52
2023-01-07T17:45:21.867Z,12.43
2023-01-07T17:47:26.958Z,12.37
2023-01-07T17:49:32.149Z,12.31
2023-01-07T17:51:43.117Z,12.25
2023-01-07T17:53:53.959Z,12.19
2023-01-07T17:55:59.440Z,12.12
2023-01-07T17:58:04.665Z,12.04
2023-01-07T18:00:16.701Z,11.93
2023-01-07T18:02:28.234Z,11.81
2023-01-07T18:04:33.487Z,11.74
2023-01-07T18:06:41.219Z,11.70
2023-01-07T18:08:46.472Z,11.71
2023-01-07T18:11:08.515Z,11.72
2023-01-07T18:13:13.623Z,11.72
2023-01-07T18:15:26.595Z,11.70
2023-01-07T18:17:32.714Z,11.65
2023-01-07T18:19:37.944Z,11.61
2023-01-07T18:21:43.457Z,11.57
2023-01-07T18:23:48.740Z,11.55
2023-01-07T18:25:57.041Z,11.56
2023-01-07T18:28:04.487Z,11.56
2023-01-07T18:30:15.199Z,11.57
2023-01-07T18:32:20.740Z,11.57
2023-01-07T18:34:25.931Z,11.54
2023-01-07T18:36:31.131Z,11.46
2023-01-07T18:38:36.691Z,11.41
2023-01-07T18:40:42.290Z,11.34
2023-01-07T18:42:50.566Z,11.27
2023-01-07T18:44:55.759Z,11.20
2023-01-07T18:47:01.194Z,11.16
2023-01-07T18:49:06.422Z,11.09
2023-01-07T18:51:14.237Z,11.03
2023-01-07T18:53:22.638Z,10.96
2023-01-07T18:55:29.516Z,10.90
2023-01-07T18:57:34.775Z,10.82
2023-01-07T18:59:42.565Z,10.79
2023-01-07T19:01:47.998Z,10.76
2023-01-07T19:03:53.442Z,10.73
2023-01-07T19:06:00.134Z,10.70
2023-01-07T19:08:05.604Z,10.65
2023-01-07T19:10:12.199Z,10.63
2023-01-07T19:12:17.764Z,10.60
2023-01-07T19:14:23.054Z,10.56
2023-01-07T19:16:31.254Z,10.49
2023-01-07T19:18:36.708Z,10.44
2023-01-07T19:20:42.164Z,10.39
2023-01-07T19:22:47.609Z,10.37
2023-01-07T19:24:52.747Z,10.35
2023-01-07T19:26:57.927Z,10.31
2023-01-07T19:29:03.437Z,10.25
2023-01-07T19:31:11.107Z,10.18
2023-01-07T19:33:18.887Z,10.12
2023-01-07T19:35:24.212Z,10.06
2023-01-07T19:37:29.555Z,10.01
2023-01-07T19:39:34.712Z,9.98
2023-01-07T19:41:39.838Z,9.94
2023-01-07T19:43:46.023Z,9.91
2023-01-07T19:45:57.351Z,9.88
2023-01-07T19:48:02.532Z,9.87
2023-01-07T19:50:11.953Z,9.86
2023-01-07T19:52:17.665Z,9.88
2023-01-07T19:54:22.794Z,9.91
2023-01-07T19:56:30.347Z,9.96
2023-01-07T19:58:36.324Z,10.01
2023-01-07T20:00:41.551Z,9.99
2023-01-07T20:02:46.756Z,9.96
2023-01-07T20:04:51.960Z,9.94
2023-01-07T20:06:59.762Z,9.92
2023-01-07T20:09:10.558Z,9.93
2023-01-07T20:11:17.779Z,9.91
2023-01-07T20:13:22.991Z,9.90
2023-01-07T20:15:28.568Z,9.86
2023-01-07T20:17:33.752Z,9.83
2023-01-07T20:19:38.855Z,9.79
2023-01-07T20:21:44.945Z,9.78
2023-01-07T20:23:53.614Z,9.77
2023-01-07T20:26:00.262Z,9.76
2023-01-07T20:28:07.600Z,9.75
2023-01-07T20:30:15.657Z,9.81
2023-01-07T20:32:21.420Z,9.85
2023-01-07T20:34:27.376Z,9.88
2023-01-07T20:36:34.758Z,9.87
2023-01-07T20:38:43.650Z,9.78
2023-01-07T20:40:51.750Z,9.73
2023-01-07T20:42:57.290Z,9.68
2023-01-07T20:45:03.070Z,9.65
2023-01-07T20:47:09.121Z,9.59
2023-01-07T20:49:15.956Z,9.56
2023-01-07T20:51:22.169Z,9.54
2023-01-07T20:53:29.085Z,9.54
2023-01-07T20:55:35.249Z,9.55
2023-01-07T20:57:43.206Z,9.53
2023-01-07T20:59:48.598Z,9.54
2023-01-07T21:01:54.039Z,9.54
2023-01-07T21:04:01.546Z,9.53
2023-01-07T21:06:13.998Z,9.59
2023-01-07T21:08:19.413Z,9.57
2023-01-07T21:27:16.557Z,9.68
2023-01-07T21:29:22.104Z,9.68
2023-01-07T21:31:29.531Z,9.69
2023-01-07T21:33:35.360Z,9.68
2023-01-07T21:35:43.356Z,9.70
2023-01-07T21:37:49.956Z,9.69
2023-01-07T21:39:56.050Z,9.70
2023-01-07T21:42:01.698Z,9.73
2023-01-07T21:44:09.877Z,9.73
2023-01-07T21:46:16.019Z,9.75
2023-01-07T21:48:21.466Z,9.75
2023-01-07T21:50:26.844Z,9.76
2023-01-07T21:52:32.321Z,9.77
2023-01-07T21:54:38.184Z,9.77
2023-01-07T21:56:43.585Z,9.76
2023-01-07T21:58:50.406Z,9.74
2023-01-07T22:00:58.463Z,9.76
2023-01-07T22:03:04.189Z,9.74
2023-01-07T22:05:12.089Z,9.72
2023-01-07T22:07:19.396Z,9.71
2023-01-07T22:09:25.479Z,9.68
2023-01-07T22:11:31.505Z,9.68
2023-01-07T22:13:37.171Z,9.67
2023-01-07T22:15:43.291Z,9.65
2023-01-07T22:17:51.296Z,9.64
2023-01-07T22:19:56.840Z,9.61
2023-01-07T22:22:02.818Z,9.61
2023-01-07T22:24:09.665Z,9.59
2023-01-07T22:26:16.284Z,9.60
2023-01-07T22:28:26.030Z,9.59
2023-01-07T22:30:35.663Z,9.58
2023-01-07T22:32:40.950Z,9.54
2023-01-07T22:34:49.116Z,9.56
2023-01-07T22:37:03.225Z,9.54
2023-01-07T22:39:14.207Z,9.52
2023-01-07T22:41:19.983Z,9.50
2023-01-07T22:43:28.126Z,9.50
2023-01-07T22:45:44.124Z,9.49
2023-01-07T22:47:53.839Z,9.47
2023-01-07T22:50:06.766Z,9.43
2023-01-07T22:52:13.499Z,9.42
2023-01-07T22:54:20.902Z,9.42
2023-01-07T22:56:27.643Z,9.40
2023-01-07T22:58:33.018Z,9.39
2023-01-07T23:01:13.278Z,9.36
2023-01-07T23:03:18.881Z,9.31
2023-01-07T23:05:26.787Z,9.32
2023-01-07T23:07:32.373Z,9.30
2023-01-07T23:09:37.648Z,9.29
2023-01-07T23:11:52.255Z,9.27
2023-01-07T23:13:57.792Z,9.23
2023-01-07T23:16:04.977Z,9.24
2023-01-07T23:18:12.927Z,9.22
2023-01-07T23:20:18.855Z,9.17
2023-01-07T23:22:26.860Z,9.24
2023-01-07T23:24:32.326Z,9.21
2023-01-07T23:26:37.713Z,9.23
2023-01-07T23:28:43.035Z,9.24
2023-01-07T23:30:48.439Z,9.24
2023-01-07T23:32:53.948Z,9.22
2023-01-07T23:34:59.351Z,9.21
2023-01-07T23:37:04.714Z,9.21
2023-01-07T23:39:13.125Z,9.21
2023-01-07T23:41:18.843Z,9.17
2023-01-07T23:43:24.092Z,9.19
2023-01-07T23:45:29.387Z,9.17
2023-01-07T23:47:34.723Z,9.13
2023-01-07T23:49:40.097Z,9.07
2023-01-07T23:51:45.358Z,9.00
2023-01-07T23:53:51.653Z,8.89
2023-01-07T23:56:00.245Z,8.89
2023-01-07T23:58:05.622Z,8.88
